createdAt,value
2022-12-18T00:01:07.189Z,73.17
2022-12-18T00:03:37.192Z,73.90
2022-12-18T00:06:04.056Z,73.43
2022-12-18T00:08:30.501Z,73.45
2022-12-18T00:11:04.593Z,73.06
2022-12-18T00:13:33.849Z,73.30
2022-12-18T00:16:05.461Z,73.58
2022-12-18T00:18:32.600Z,73.08
2022-12-18T00:21:04.397Z,72.98
2022-12-18T00:23:32.366Z,73.57
2022-12-18T00:26:04.221Z,73.45
2022-12-18T00:28:30.831Z,72.84
2022-12-18T00:31:14.522Z,73.21
2022-12-18T00:33:41.277Z,73.89
2022-12-18T00:36:20.105Z,73.91
2022-12-18T00:38:47.418Z,73.01
2022-12-18T00:41:35.699Z,73.51
2022-12-18T00:44:03.011Z,73.61
2022-12-18T00:46:29.437Z,73.70
2022-12-18T00:48:55.937Z,73.94
2022-12-18T00:51:22.421Z,73.45
2022-12-18T00:53:48.814Z,75.77
2022-12-18T00:56:15.250Z,76.64
2022-12-18T00:58:41.615Z,77.88
2022-12-18T01:01:08.373Z,76.38
2022-12-18T01:03:34.951Z,78.07
2022-12-18T01:06:07.601Z,78.38
2022-12-18T01:08:34.394Z,79.32
2022-12-18T01:11:01.272Z,77.24
2022-12-18T01:13:28.576Z,77.12
2022-12-18T01:15:54.955Z,76.53
2022-12-18T01:18:21.305Z,76.30
2022-12-18T01:20:47.703Z,75.25
2022-12-18T01:23:14.168Z,75.33
2022-12-18T01:25:40.565Z,75.64
2022-12-18T01:28:06.918Z,77.13
2022-12-18T01:30:33.467Z,77.88
2022-12-18T01:32:59.922Z,79.60
2022-12-18T01:35:26.274Z,79.43
2022-12-18T01:37:56.152Z,79.85
2022-12-18T01:40:22.749Z,80.29
2022-12-18T01:42:58.046Z,79.72
2022-12-18T01:45:30.676Z,78.89
2022-12-18T01:48:09.598Z,79.11
2022-12-18T01:50:44.020Z,79.35
2022-12-18T01:53:21.838Z,79.10
2022-12-18T01:55:54.394Z,79.69
2022-12-18T01:58:28.608Z,78.75
2022-12-18T02:00:55.994Z,80.03
2022-12-18T02:03:22.550Z,79.59
2022-12-18T02:06:01.853Z,80.43
2022-12-18T02:08:38.446Z,80.07
2022-12-18T02:11:11.916Z,79.35
2022-12-18T02:14:04.984Z,79.17
2022-12-18T02:16:44.809Z,79.02
2022-12-18T02:19:45.725Z,79.69
2022-12-18T02:22:50.123Z,79.76
2022-12-18T02:25:53.280Z,79.45
2022-12-18T02:28:24.535Z,78.81
2022-12-18T02:30:54.281Z,78.97
2022-12-18T02:33:22.436Z,79.09
2022-12-18T02:35:50.100Z,78.60
2022-12-18T02:38:17.700Z,78.40
2022-12-18T02:40:44.994Z,77.71
2022-12-18T02:43:15.950Z,77.86
2022-12-18T02:45:55.606Z,78.47
2022-12-18T02:48:30.087Z,77.98
2022-12-18T02:51:24.787Z,77.55
2022-12-18T02:53:59.064Z,77.41
2022-12-18T02:56:39.743Z,77.11
2022-12-18T02:59:19.848Z,77.13
2022-12-18T03:02:14.195Z,77.23
2022-12-18T03:04:48.446Z,77.74
2022-12-18T03:07:24.740Z,77.88
2022-12-18T03:09:52.760Z,77.48
2022-12-18T03:12:54.151Z,77.95
2022-12-18T03:15:36.078Z,78.10
2022-12-18T03:18:11.866Z,77.81
2022-12-18T03:20:42.426Z,77.80
2022-12-18T03:23:14.770Z,77.46
2022-12-18T03:25:45.012Z,78.39
2022-12-18T03:28:16.595Z,78.12
2022-12-18T03:30:45.383Z,77.38
2022-12-18T03:33:20.662Z,77.98
2022-12-18T03:35:47.550Z,77.71
2022-12-18T03:38:14.669Z,77.16
2022-12-18T03:40:43.840Z,77.05
2022-12-18T03:43:20.094Z,76.95
2022-12-18T03:46:00.297Z,76.47
2022-12-18T03:48:36.365Z,77.30
2022-12-18T03:51:10.047Z,77.02
2022-12-18T03:53:53.128Z,76.31
2022-12-18T03:56:22.482Z,76.65
2022-12-18T03:58:50.790Z,76.46
2022-12-18T04:01:18.724Z,76.11
2022-12-18T04:03:49.138Z,76.87
2022-12-18T04:06:17.439Z,76.39
2022-12-18T04:08:44.309Z,77.00
2022-12-18T04:11:10.738Z,75.88
2022-12-18T04:13:39.483Z,76.32
2022-12-18T04:16:06.970Z,76.40
2022-12-18T04:18:33.617Z,76.32
2022-12-18T04:20:59.961Z,75.60
2022-12-18T04:23:26.432Z,75.97
2022-12-18T04:25:52.792Z,75.79
2022-12-18T04:28:19.140Z,76.60
2022-12-18T04:30:46.019Z,76.40
2022-12-18T04:33:14.125Z,76.79
2022-12-18T04:35:41.636Z,77.35
2022-12-18T04:38:09.435Z,77.45
2022-12-18T04:40:36.559Z,77.00
2022-12-18T04:43:03.283Z,77.28
2022-12-18T04:45:31.598Z,76.33
2022-12-18T04:47:58.630Z,77.18
2022-12-18T04:50:25.270Z,76.02
2022-12-18T04:52:51.815Z,76.48
2022-12-18T04:55:18.178Z,76.57
2022-12-18T04:57:44.615Z,76.24
2022-12-18T05:00:11.805Z,76.78
2022-12-18T05:02:38.303Z,76.96
2022-12-18T05:05:05.345Z,76.07
2022-12-18T05:07:31.718Z,76.29
2022-12-18T05:09:58.081Z,75.81
2022-12-18T05:12:24.735Z,76.05
2022-12-18T05:14:51.504Z,76.45
2022-12-18T05:17:18.289Z,76.83
2022-12-18T05:19:44.743Z,76.44
2022-12-18T05:22:11.160Z,76.55
2022-12-18T05:24:37.624Z,76.36
2022-12-18T05:27:04.322Z,76.80
2022-12-18T05:29:30.741Z,77.42
2022-12-18T05:31:57.225Z,76.70
2022-12-18T05:34:23.638Z,76.63
2022-12-18T05:36:49.962Z,76.94
2022-12-18T05:39:16.397Z,76.49
2022-12-18T05:41:42.811Z,77.39
2022-12-18T05:44:09.877Z,76.50
2022-12-18T05:46:37.314Z,76.82
2022-12-18T05:49:03.775Z,77.09
2022-12-18T05:51:30.185Z,76.51
2022-12-18T05:53:56.533Z,78.09
2022-12-18T05:56:23.745Z,77.99
2022-12-18T05:58:53.795Z,77.98
2022-12-18T06:01:24.400Z,79.00
2022-12-18T06:03:50.986Z,79.40
2022-12-18T06:06:20.759Z,78.53
2022-12-18T06:08:47.558Z,79.05
2022-12-18T06:11:16.830Z,79.45
2022-12-18T06:13:43.216Z,79.66
2022-12-18T06:16:09.637Z,79.91
2022-12-18T06:18:39.224Z,79.52
2022-12-18T06:21:05.804Z,79.16
2022-12-18T06:23:32.192Z,80.78
2022-12-18T06:25:58.904Z,80.62
2022-12-18T06:28:25.306Z,80.49
2022-12-18T06:30:51.942Z,81.34
2022-12-18T06:33:18.492Z,79.92
2022-12-18T06:35:44.857Z,81.30
2022-12-18T06:38:11.274Z,80.86
2022-12-18T06:40:39.829Z,81.28
2022-12-18T06:43:07.142Z,80.38
2022-12-18T06:45:33.722Z,80.40
2022-12-18T06:48:00.228Z,80.99
2022-12-18T06:50:26.660Z,81.63
2022-12-18T06:52:53.105Z,81.53
2022-12-18T06:55:19.498Z,80.90
2022-12-18T06:57:45.894Z,81.74
2022-12-18T07:00:12.571Z,81.47
2022-12-18T07:02:39.160Z,81.33
2022-12-18T07:05:10.452Z,81.04
2022-12-18T07:07:37.152Z,80.86
2022-12-18T07:10:03.890Z,80.86
2022-12-18T07:12:30.402Z,81.09
2022-12-18T07:14:56.777Z,80.82
2022-12-18T07:17:23.192Z,81.90
2022-12-18T07:19:49.639Z,81.12
2022-12-18T07:22:15.975Z,81.07
2022-12-18T07:24:42.302Z,81.14
2022-12-18T07:27:08.759Z,81.37
2022-12-18T07:29:36.636Z,81.43
2022-12-18T07:32:03.052Z,81.43
2022-12-18T07:34:29.590Z,81.81
2022-12-18T07:36:55.972Z,80.80
2022-12-18T07:39:22.450Z,81.31
2022-12-18T07:42:08.774Z,81.45
2022-12-18T07:44:35.159Z,81.09
2022-12-18T07:47:01.609Z,80.96
2022-12-18T07:49:28.748Z,80.94
2022-12-18T07:51:57.072Z,80.98
2022-12-18T07:54:24.514Z,80.72
2022-12-18T07:56:51.958Z,80.50
2022-12-18T07:59:18.917Z,80.33
2022-12-18T08:01:45.667Z,79.89
2022-12-18T08:04:13.450Z,80.04
2022-12-18T08:06:42.609Z,80.27
2022-12-18T08:09:12.749Z,80.38
2022-12-18T08:11:39.281Z,80.20
2022-12-18T08:14:05.657Z,80.26
2022-12-18T08:16:32.208Z,79.87
2022-12-18T08:18:58.698Z,79.16
2022-12-18T08:21:27.728Z,78.87
2022-12-18T08:23:56.163Z,78.52
2022-12-18T08:26:23.497Z,78.27
2022-12-18T08:28:51.483Z,78.24
2022-12-18T08:31:18.928Z,78.32
2022-12-18T08:33:45.456Z,78.44
2022-12-18T08:36:12.001Z,78.65
2022-12-18T08:38:38.401Z,78.86
2022-12-18T08:41:07.622Z,78.69
2022-12-18T08:43:53.165Z,78.17
2022-12-18T08:46:20.771Z,78.45
2022-12-18T08:48:47.685Z,78.16
2022-12-18T08:51:14.447Z,78.55
2022-12-18T08:53:41.153Z,78.04
2022-12-18T08:56:08.688Z,78.23
2022-12-18T08:58:35.144Z,77.63
2022-12-18T09:01:03.078Z,77.45
2022-12-18T09:03:29.792Z,77.22
2022-12-18T09:05:56.353Z,77.21
2022-12-18T09:08:22.920Z,76.53
2022-12-18T09:10:51.060Z,76.51
2022-12-18T09:13:18.255Z,76.44
2022-12-18T09:15:47.161Z,75.86
2022-12-18T09:18:15.497Z,76.49
2022-12-18T09:20:42.015Z,76.86
2022-12-18T09:23:10.013Z,76.70
2022-12-18T09:25:37.920Z,75.86
2022-12-18T09:28:17.287Z,75.16
2022-12-18T09:30:46.856Z,74.86
2022-12-18T09:33:13.591Z,75.29
2022-12-18T09:35:42.734Z,75.11
2022-12-18T09:38:13.288Z,74.29
2022-12-18T09:40:44.960Z,74.37
2022-12-18T09:43:30.972Z,74.35
2022-12-18T09:46:05.192Z,74.27
2022-12-18T09:48:35.550Z,74.64
2022-12-18T09:51:09.850Z,74.29
2022-12-18T09:53:40.995Z,74.22
2022-12-18T09:56:16.952Z,74.41
2022-12-18T09:58:54.066Z,74.69
2022-12-18T10:01:23.941Z,74.68
2022-12-18T10:03:51.858Z,73.49
2022-12-18T10:06:42.817Z,73.13
2022-12-18T10:09:18.719Z,72.66
2022-12-18T10:11:54.298Z,72.68
2022-12-18T10:14:41.669Z,71.98
2022-12-18T10:17:23.764Z,72.41
2022-12-18T10:19:53.591Z,72.84
2022-12-18T10:22:57.169Z,72.80
2022-12-18T10:25:34.755Z,72.25
2022-12-18T10:28:15.351Z,72.53
2022-12-18T10:30:43.117Z,72.75
2022-12-18T10:33:17.691Z,72.56
2022-12-18T10:35:45.255Z,72.28
2022-12-18T10:38:14.344Z,71.89
2022-12-18T10:40:53.094Z,72.15
2022-12-18T10:43:35.807Z,73.12
2022-12-18T10:46:03.869Z,73.46
2022-12-18T10:48:31.640Z,72.83
2022-12-18T10:51:13.991Z,72.87
2022-12-18T10:53:42.743Z,72.72
2022-12-18T10:56:09.876Z,72.96
2022-12-18T10:58:38.732Z,73.52
2022-12-18T11:01:14.827Z,73.38
2022-12-18T11:03:46.680Z,72.58
2022-12-18T11:06:25.438Z,72.60
2022-12-18T11:09:07.860Z,72.29
2022-12-18T11:11:38.900Z,72.10
2022-12-18T11:14:09.196Z,72.30
2022-12-18T11:16:52.969Z,72.07
2022-12-18T11:19:38.787Z,71.88
2022-12-18T11:22:21.478Z,71.94
2022-12-18T11:25:30.124Z,72.03
2022-12-18T11:27:53.903Z,71.92
2022-12-18T11:30:31.470Z,71.97
2022-12-18T11:33:10.559Z,71.92
2022-12-18T11:36:03.750Z,71.67
2022-12-18T11:38:40.772Z,72.12
2022-12-18T11:41:50.376Z,72.77
2022-12-18T11:44:25.139Z,72.70
2022-12-18T11:46:58.683Z,72.70
2022-12-18T11:49:35.586Z,72.25
2022-12-18T11:52:10.171Z,72.31
2022-12-18T11:54:37.113Z,72.67
2022-12-18T11:57:35.906Z,71.92
2022-12-18T12:00:16.584Z,71.09
2022-12-18T12:03:23.395Z,70.74
2022-12-18T12:06:04.346Z,70.63
2022-12-18T12:09:05.988Z,69.99
2022-12-18T12:11:49.450Z,70.00
2022-12-18T12:14:33.740Z,70.80
2022-12-18T12:17:08.915Z,70.33
2022-12-18T12:20:07.571Z,70.07
2022-12-18T12:23:02.022Z,70.41
2022-12-18T12:25:58.200Z,70.06
2022-12-18T12:28:56.153Z,70.34
2022-12-18T12:31:50.420Z,70.13
2022-12-18T12:34:49.496Z,69.84
2022-12-18T12:37:49.785Z,69.04
2022-12-18T12:40:50.863Z,68.93
2022-12-18T12:43:20.638Z,69.38
2022-12-18T12:45:53.367Z,69.40
2022-12-18T12:48:34.086Z,69.63
2022-12-18T12:51:05.132Z,69.06
2022-12-18T12:53:36.754Z,68.54
2022-12-18T12:56:06.612Z,68.52
2022-12-18T12:58:55.562Z,69.23
2022-12-18T13:01:42.996Z,69.47
2022-12-18T13:04:22.817Z,69.39
2022-12-18T13:07:00.742Z,69.91
2022-12-18T13:09:34.528Z,70.48
2022-12-18T13:12:23.830Z,70.11
2022-12-18T13:14:50.411Z,69.65
2022-12-18T13:17:20.812Z,69.81
2022-12-18T13:19:52.020Z,70.17
2022-12-18T13:22:34.888Z,70.45
2022-12-18T13:25:01.668Z,70.38
2022-12-18T13:27:46.518Z,70.23
2022-12-18T13:30:32.561Z,69.97
2022-12-18T13:33:14.294Z,69.64
2022-12-18T13:35:51.868Z,70.74
2022-12-18T13:38:27.113Z,71.27
2022-12-18T13:41:01.151Z,71.47
2022-12-18T13:43:29.463Z,71.48
2022-12-18T13:46:19.155Z,71.21
2022-12-18T13:48:57.021Z,70.66
2022-12-18T13:51:25.309Z,71.07
2022-12-18T13:53:55.267Z,70.83
2022-12-18T13:56:29.422Z,70.98
2022-12-18T13:59:17.604Z,71.88
2022-12-18T14:01:47.967Z,72.55
2022-12-18T14:04:22.750Z,72.50
2022-12-18T14:06:53.019Z,72.25
2022-12-18T14:09:26.044Z,72.21
2022-12-18T14:12:14.252Z,71.96
2022-12-18T14:14:44.214Z,72.51
2022-12-18T14:17:12.827Z,72.90
2022-12-18T14:19:43.622Z,73.18
2022-12-18T14:22:17.719Z,73.56
2022-12-18T14:24:44.058Z,73.52
2022-12-18T14:27:20.845Z,73.21
2022-12-18T14:29:47.291Z,73.40
2022-12-18T14:32:18.699Z,73.76
2022-12-18T14:34:55.395Z,73.74
2022-12-18T14:37:26.946Z,74.26
2022-12-18T14:39:58.953Z,74.42
2022-12-18T14:42:29.045Z,74.57
2022-12-18T14:45:39.085Z,74.58
2022-12-18T14:48:28.702Z,74.90
2022-12-18T14:51:04.471Z,74.76
2022-12-18T14:53:47.574Z,75.17
2022-12-18T14:56:28.896Z,74.94
2022-12-18T14:58:59.509Z,75.43
2022-12-18T15:01:27.544Z,75.91
2022-12-18T15:03:55.492Z,75.71
2022-12-18T15:06:28.546Z,75.89
2022-12-18T15:08:55.470Z,76.68
2022-12-18T15:11:48.272Z,76.82
2022-12-18T15:14:44.181Z,77.15
2022-12-18T15:17:22.870Z,76.92
2022-12-18T15:19:54.272Z,77.29
2022-12-18T15:22:33.972Z,77.52
2022-12-18T15:25:01.176Z,78.42
2022-12-18T15:27:29.610Z,78.19
2022-12-18T15:30:02.268Z,78.04
2022-12-18T15:32:28.717Z,78.15
2022-12-18T15:35:15.933Z,78.31
2022-12-18T15:37:43.450Z,78.30
2022-12-18T15:40:14.773Z,77.75
2022-12-18T15:43:03.177Z,78.52
2022-12-18T15:45:29.736Z,78.32
2022-12-18T15:47:56.276Z,78.57
2022-12-18T15:50:23.070Z,79.08
2022-12-18T15:52:52.118Z,78.95
2022-12-18T15:55:40.097Z,79.00
2022-12-18T15:58:08.204Z,78.51
2022-12-18T16:00:37.306Z,78.54
2022-12-18T16:03:04.952Z,78.89
2022-12-18T16:05:32.401Z,78.84
2022-12-18T16:07:59.225Z,78.37
2022-12-18T16:10:27.167Z,78.80
2022-12-18T16:12:53.574Z,79.06
2022-12-18T16:15:24.452Z,78.78
2022-12-18T16:17:51.163Z,79.10
2022-12-18T16:20:22.314Z,79.13
2022-12-18T16:22:49.771Z,79.27
2022-12-18T16:25:22.519Z,79.42
2022-12-18T16:27:49.322Z,79.48
2022-12-18T16:30:19.331Z,79.67
2022-12-18T16:32:45.806Z,79.77
2022-12-18T16:35:14.648Z,79.85
2022-12-18T16:37:42.026Z,80.19
2022-12-18T16:40:11.220Z,79.62
2022-12-18T16:42:39.102Z,79.39
2022-12-18T16:45:06.936Z,79.22
2022-12-18T16:47:33.504Z,79.52
2022-12-18T16:49:59.950Z,79.98
2022-12-18T16:52:26.791Z,79.80
2022-12-18T16:54:53.222Z,79.97
2022-12-18T16:57:21.174Z,79.81
2022-12-18T16:59:51.148Z,79.00
2022-12-18T17:02:23.679Z,78.68
2022-12-18T17:04:53.324Z,79.46
2022-12-18T17:07:19.829Z,78.63
2022-12-18T17:09:46.204Z,78.78
2022-12-18T17:12:12.650Z,78.81
2022-12-18T17:14:39.152Z,78.97
2022-12-18T17:17:22.603Z,79.51
2022-12-18T17:19:50.342Z,78.97
2022-12-18T17:22:16.729Z,78.84
2022-12-18T17:24:43.119Z,78.39
2022-12-18T17:27:09.599Z,79.03
2022-12-18T17:29:36.139Z,78.27
2022-12-18T17:32:02.653Z,78.39
2022-12-18T17:34:30.022Z,78.04
2022-12-18T17:36:57.132Z,78.57
2022-12-18T17:39:23.619Z,78.87
2022-12-18T17:41:50.050Z,79.07
2022-12-18T17:44:17.479Z,78.99
2022-12-18T17:46:44.473Z,79.15
2022-12-18T17:49:11.562Z,78.99
2022-12-18T17:51:38.049Z,79.60
2022-12-18T17:54:05.354Z,79.79
2022-12-18T17:56:32.812Z,79.74
2022-12-18T17:58:59.863Z,79.39
2022-12-18T18:01:26.850Z,79.30
2022-12-18T18:03:55.990Z,79.25
2022-12-18T18:06:23.667Z,79.46
2022-12-18T18:08:50.672Z,78.87
2022-12-18T18:11:38.027Z,78.69
2022-12-18T18:14:10.939Z,78.11
2022-12-18T18:16:42.704Z,78.52
2022-12-18T18:19:15.180Z,78.61
2022-12-18T18:21:43.873Z,78.71
2022-12-18T18:24:12.931Z,79.16
2022-12-18T18:26:41.578Z,79.69
2022-12-18T18:29:09.262Z,80.03
2022-12-18T18:31:40.176Z,79.63
2022-12-18T18:34:08.273Z,79.71
2022-12-18T18:36:34.854Z,79.55
2022-12-18T18:39:02.189Z,79.44
2022-12-18T18:41:30.406Z,79.26
2022-12-18T18:43:58.244Z,79.76
2022-12-18T18:46:25.609Z,79.52
2022-12-18T18:48:52.146Z,79.89
2022-12-18T18:51:21.424Z,79.59
2022-12-18T18:53:50.354Z,80.21
2022-12-18T18:56:56.718Z,80.05
2022-12-18T18:59:06.757Z,80.26
2022-12-18T19:01:33.282Z,80.10
2022-12-18T19:04:01.155Z,79.86
2022-12-18T19:06:28.554Z,80.79
2022-12-18T19:08:57.023Z,80.48
2022-12-18T19:11:43.621Z,80.75
2022-12-18T19:14:12.449Z,80.11
2022-12-18T19:16:39.341Z,79.54
2022-12-18T19:19:06.390Z,79.73
2022-12-18T19:21:34.644Z,80.43
2022-12-18T19:24:01.619Z,80.36
2022-12-18T19:26:28.953Z,79.80
2022-12-18T19:29:08.291Z,79.50
2022-12-18T19:31:37.010Z,79.12
2022-12-18T19:34:07.765Z,79.41
2022-12-18T19:36:37.147Z,78.70
2022-12-18T19:39:12.634Z,79.57
2022-12-18T19:41:39.700Z,78.90
2022-12-18T19:44:08.266Z,79.37
2022-12-18T19:46:35.468Z,79.57
2022-12-18T19:49:02.352Z,79.45
2022-12-18T19:51:30.715Z,79.27
2022-12-18T19:53:59.297Z,79.49
2022-12-18T19:56:29.384Z,79.13
2022-12-18T19:58:55.924Z,78.95
2022-12-18T20:01:24.924Z,78.36
2022-12-18T20:03:52.751Z,78.88
2022-12-18T20:06:32.922Z,78.88
2022-12-18T20:09:03.083Z,78.78
2022-12-18T20:11:30.733Z,78.88
2022-12-18T20:13:58.242Z,78.88
2022-12-18T20:16:24.746Z,78.55
2022-12-18T20:18:51.395Z,78.65
2022-12-18T20:21:18.808Z,78.84
2022-12-18T20:23:46.168Z,78.83
2022-12-18T20:26:12.952Z,79.11
2022-12-18T20:28:40.656Z,79.00
2022-12-18T20:31:08.380Z,78.70
2022-12-18T20:33:37.193Z,79.01
2022-12-18T20:36:06.266Z,78.97
2022-12-18T20:38:34.192Z,79.01
2022-12-18T20:41:02.498Z,78.94
2022-12-18T20:43:29.671Z,78.55
2022-12-18T20:46:06.795Z,78.61
2022-12-18T20:48:33.625Z,78.36
2022-12-18T20:51:02.098Z,78.85
2022-12-18T20:53:30.469Z,78.87
2022-12-18T20:55:56.890Z,78.56
2022-12-18T20:58:23.366Z,78.08
2022-12-18T21:00:50.183Z,78.57
2022-12-18T21:03:17.799Z,78.07
2022-12-18T21:05:44.240Z,78.16
2022-12-18T21:08:10.712Z,78.11
2022-12-18T21:10:39.182Z,77.67
2022-12-18T21:13:07.282Z,78.01
2022-12-18T21:15:35.926Z,77.97
2022-12-18T21:18:02.306Z,77.97
2022-12-18T21:20:28.694Z,77.64
2022-12-18T21:22:55.541Z,78.08
2022-12-18T21:25:33.008Z,78.00
2022-12-18T21:27:59.351Z,77.95
2022-12-18T21:30:26.017Z,77.97
2022-12-18T21:32:52.425Z,78.13
2022-12-18T21:35:18.768Z,77.50
2022-12-18T21:37:46.926Z,78.11
2022-12-18T21:40:13.803Z,77.65
2022-12-18T21:42:58.690Z,77.72
2022-12-18T21:45:25.052Z,78.18
2022-12-18T21:47:51.474Z,78.00
2022-12-18T21:50:17.957Z,77.78
2022-12-18T21:52:44.436Z,77.90
2022-12-18T21:55:10.836Z,78.14
2022-12-18T21:57:39.990Z,78.11
2022-12-18T22:00:10.647Z,77.89
2022-12-18T22:02:43.420Z,78.05
2022-12-18T22:05:09.851Z,77.92
2022-12-18T22:07:37.551Z,77.89
2022-12-18T22:10:04.166Z,78.28
2022-12-18T22:12:43.600Z,78.09
2022-12-18T22:15:15.737Z,78.17
2022-12-18T22:17:48.241Z,78.67
2022-12-18T22:20:15.888Z,77.94
2022-12-18T22:22:42.313Z,77.77
2022-12-18T22:25:10.035Z,77.38
2022-12-18T22:27:36.958Z,77.67
2022-12-18T22:30:04.429Z,77.69
2022-12-18T22:32:32.539Z,77.75
2022-12-18T22:35:05.910Z,77.38
2022-12-18T22:37:33.787Z,76.74
2022-12-18T22:40:02.819Z,76.63
2022-12-18T22:42:30.068Z,77.09
2022-12-18T22:44:56.453Z,77.06
2022-12-18T22:47:27.881Z,76.81
2022-12-18T22:49:55.994Z,76.64
2022-12-18T22:52:23.435Z,76.43
2022-12-18T22:54:51.429Z,76.92
2022-12-18T22:57:20.094Z,76.46
2022-12-18T22:59:46.433Z,77.01
2022-12-18T23:02:12.884Z,76.70
2022-12-18T23:04:39.824Z,76.44
2022-12-18T23:07:07.370Z,76.81
2022-12-18T23:09:34.405Z,76.41
2022-12-18T23:12:01.202Z,76.88
2022-12-18T23:14:28.449Z,76.73
2022-12-18T23:16:55.099Z,76.67
2022-12-18T23:19:21.573Z,76.90
2022-12-18T23:21:50.644Z,76.79
2022-12-18T23:24:17.117Z,76.12
2022-12-18T23:26:43.515Z,75.91
2022-12-18T23:29:09.986Z,75.61
2022-12-18T23:31:38.773Z,75.66
2022-12-18T23:34:06.871Z,75.78
2022-12-18T23:36:46.055Z,75.85
2022-12-18T23:39:28.571Z,75.50
2022-12-18T23:41:59.826Z,75.37
2022-12-18T23:44:26.467Z,75.27
2022-12-18T23:46:53.060Z,76.05
2022-12-18T23:49:19.509Z,76.09
2022-12-18T23:51:45.869Z,76.10
2022-12-18T23:54:12.243Z,76.34
2022-12-18T23:56:38.702Z,76.45
2022-12-18T23:59:05.067Z,76.54
